Time;durP1;ratioP1;P1;durP2;ratioP2;P2;SDS_P1;SDS_P2;PMS_P1;PMS_P2;Temp;Humidity;BMP_temperature;BMP_pressure;BME280_temperature;BME280_humidity;BME280_pressure;Samples;Min_cycle;Max_cycle;Signal;HPM_P1;HPM_P2
2022/06/18 00:00:37;;;;;;;4.33;2.00;;;18.50;99.90;;;;;;5017357;28;20032;-52
2022/06/18 00:03:03;;;;;;;3.25;1.48;;;18.40;99.90;;;;;;5017170;28;20022;-49
2022/06/18 00:05:31;;;;;;;2.65;1.58;;;18.30;99.90;;;;;;5017865;28;20030;-50
2022/06/18 00:07:57;;;;;;;2.90;1.65;;;18.30;99.90;;;;;;5035129;28;20022;-52
2022/06/18 00:10:27;;;;;;;1.73;1.42;;;18.20;99.90;;;;;;5016668;28;20023;-54
2022/06/18 00:15:38;;;;;;;2.83;1.80;;;18.40;99.90;;;;;;5034536;28;20117;-53
2022/06/18 00:18:11;;;;;;;1.38;1.27;;;18.50;99.90;;;;;;5034306;28;20025;-52
2022/06/18 00:20:38;;;;;;;3.97;1.70;;;18.40;99.90;;;;;;5034337;28;20083;-55
2022/06/18 00:23:10;;;;;;;2.53;1.48;;;18.40;99.90;;;;;;5034272;28;20064;-49
2022/06/18 00:25:39;;;;;;;5.10;1.50;;;18.30;99.90;;;;;;5034182;28;20099;-51
2022/06/18 00:28:16;;;;;;;4.32;1.75;;;18.30;99.90;;;;;;5016775;28;20018;-54
2022/06/18 00:30:42;;;;;;;3.10;1.42;;;18.30;99.90;;;;;;5034545;28;20032;-55
2022/06/18 00:33:08;;;;;;;6.25;1.77;;;18.20;99.90;;;;;;5016279;28;20052;-49
2022/06/18 00:35:34;;;;;;;2.90;1.45;;;18.20;99.90;;;;;;5034184;28;20025;-50
2022/06/18 00:38:03;;;;;;;3.17;1.63;;;18.20;99.90;;;;;;5017274;28;20037;-53
2022/06/18 00:40:34;;;;;;;1.88;1.33;;;18.20;99.90;;;;;;5034139;28;20091;-52
2022/06/18 00:43:08;;;;;;;3.45;1.48;;;18.10;99.90;;;;;;5016134;28;20060;-49
2022/06/18 00:45:33;;;;;;;2.75;1.30;;;18.10;99.90;;;;;;5016578;28;20033;-49
2022/06/18 00:48:27;;;;;;;3.35;1.70;;;18.00;99.90;;;;;;5034243;28;20021;-49
2022/06/18 00:51:03;;;;;;;4.45;1.63;;;18.00;99.90;;;;;;5016554;28;20084;-51
2022/06/18 00:53:36;;;;;;;5.35;1.35;;;17.90;99.90;;;;;;5033830;28;20025;-51
2022/06/18 00:56:12;;;;;;;2.53;1.63;;;17.90;99.90;;;;;;5034108;28;20021;-54
2022/06/18 00:58:47;;;;;;;3.90;1.65;;;17.80;99.90;;;;;;5016635;28;20456;-52
2022/06/18 01:01:22;;;;;;;3.00;1.52;;;17.70;99.90;;;;;;5033383;28;20021;-54
2022/06/18 01:03:49;;;;;;;3.92;1.60;;;17.70;99.90;;;;;;5015727;28;20033;-51
2022/06/18 01:06:17;;;;;;;7.18;1.83;;;17.70;99.90;;;;;;5016266;28;20030;-51
2022/06/18 01:08:44;;;;;;;9.88;1.75;;;17.60;99.90;;;;;;5033823;28;20481;-53
2022/06/18 01:11:20;;;;;;;4.05;1.60;;;17.60;99.90;;;;;;5016146;28;20089;-54
2022/06/18 01:13:47;;;;;;;4.60;1.65;;;17.60;99.90;;;;;;5015873;28;20052;-54
2022/06/18 01:16:13;;;;;;;5.65;1.55;;;17.80;99.90;;;;;;5033472;28;20105;-51
2022/06/18 01:18:40;;;;;;;2.75;2.08;;;17.80;99.90;;;;;;5033702;28;20044;-52
2022/06/18 01:21:43;;;;;;;3.42;1.95;;;17.80;99.90;;;;;;5033236;28;20086;-54
2022/06/18 01:24:30;;;;;;;2.90;1.80;;;17.90;99.90;;;;;;5016067;28;20029;-52
2022/06/18 01:26:56;;;;;;;6.20;1.83;;;17.70;99.90;;;;;;5015691;28;20021;-51
2022/06/18 01:29:22;;;;;;;1.70;1.52;;;17.60;99.90;;;;;;5016389;28;20025;-51
2022/06/18 01:31:49;;;;;;;4.15;2.25;;;17.60;99.90;;;;;;5015753;28;20113;-50
2022/06/18 01:34:15;;;;;;;3.13;1.40;;;17.50;99.90;;;;;;5016264;28;20026;-55
2022/06/18 01:36:42;;;;;;;2.40;1.50;;;17.50;99.90;;;;;;5033109;28;20056;-48
2022/06/18 01:39:13;;;;;;;4.07;1.70;;;17.50;99.90;;;;;;5015631;28;20083;-52
2022/06/18 01:41:49;;;;;;;3.78;1.80;;;17.50;99.90;;;;;;5015479;28;20029;-55
2022/06/18 01:44:40;;;;;;;4.70;1.73;;;17.50;99.90;;;;;;5032911;28;20033;-53
2022/06/18 01:47:21;;;;;;;8.23;1.57;;;17.40;99.90;;;;;;5017067;28;20053;-53
2022/06/18 01:49:53;;;;;;;6.10;1.80;;;17.40;99.90;;;;;;5019611;28;20319;-53
2022/06/18 01:52:23;;;;;;;4.70;1.73;;;17.30;99.90;;;;;;5037165;28;20021;-52
2022/06/18 01:54:53;;;;;;;5.15;1.80;;;17.20;99.90;;;;;;5037165;28;20468;-52
2022/06/18 01:57:27;;;;;;;7.75;1.55;;;17.10;99.90;;;;;;5037353;28;20037;-50
2022/06/18 01:59:58;;;;;;;2.03;1.50;;;17.00;99.90;;;;;;5037122;28;20055;-53
2022/06/18 02:02:24;;;;;;;8.32;1.95;;;17.00;99.90;;;;;;5019168;28;20055;-50
2022/06/18 02:04:50;;;;;;;2.60;1.60;;;17.00;99.90;;;;;;5019476;28;20097;-54
2022/06/18 02:07:18;;;;;;;9.38;2.17;;;17.00;99.90;;;;;;5019346;28;20061;-49
2022/06/18 02:10:05;;;;;;;6.00;1.52;;;17.10;99.90;;;;;;5019311;28;20033;-52
2022/06/18 02:12:36;;;;;;;4.50;2.08;;;17.10;99.90;;;;;;5018879;28;20025;-52
2022/06/18 02:15:11;;;;;;;5.78;2.03;;;17.10;99.90;;;;;;5019114;28;20029;-53
2022/06/18 02:17:38;;;;;;;3.72;2.00;;;17.00;99.90;;;;;;5019643;28;20115;-54
2022/06/18 02:20:13;;;;;;;4.55;2.13;;;17.00;99.90;;;;;;5036544;28;20033;-51
2022/06/18 02:22:45;;;;;;;4.05;2.17;;;16.90;99.90;;;;;;5036955;28;20111;-53
2022/06/18 02:25:13;;;;;;;1.90;1.65;;;16.90;99.90;;;;;;5018784;28;20040;-54
2022/06/18 02:27:40;;;;;;;2.63;2.15;;;16.80;99.90;;;;;;5018824;28;20032;-49
2022/06/18 02:30:16;;;;;;;5.32;2.13;;;16.80;99.90;;;;;;5019409;28;20047;-54
2022/06/18 02:32:56;;;;;;;4.25;2.13;;;16.80;99.90;;;;;;5018531;28;20056;-52
2022/06/18 02:35:21;;;;;;;6.93;2.53;;;16.90;99.90;;;;;;5036449;28;20053;-49
2022/06/18 02:37:47;;;;;;;6.55;2.20;;;16.80;99.90;;;;;;5036229;28;20080;-54
2022/06/18 02:40:23;;;;;;;7.40;1.75;;;16.70;99.90;;;;;;5018867;28;20029;-50
2022/06/18 02:42:52;;;;;;;4.35;2.05;;;16.70;99.90;;;;;;5036162;28;20096;-52
2022/06/18 02:45:19;;;;;;;3.83;1.83;;;16.80;99.90;;;;;;5018184;28;20030;-52
2022/06/18 02:47:46;;;;;;;9.73;1.85;;;16.70;99.90;;;;;;5018326;28;20025;-50
2022/06/18 02:50:17;;;;;;;6.63;2.35;;;16.60;99.90;;;;;;5035966;28;20025;-53
2022/06/18 02:52:51;;;;;;;;;;;16.70;99.90;;;;;;5018651;28;20033;-48
2022/06/18 02:55:36;;;;;;;3.58;1.55;;;16.60;99.90;;;;;;5036173;28;20314;-52
2022/06/18 02:58:05;;;;;;;6.45;2.20;;;16.50;99.90;;;;;;5016882;28;20029;-50
2022/06/18 03:00:36;;;;;;;4.28;2.10;;;16.50;99.90;;;;;;5035701;28;20030;-50
2022/06/18 03:03:02;;;;;;;5.40;1.98;;;16.50;99.90;;;;;;5018072;28;20041;-53
2022/06/18 03:05:28;;;;;;;4.30;1.90;;;16.40;99.90;;;;;;5017845;28;20048;-49
2022/06/18 03:07:54;;;;;;;4.35;2.15;;;16.40;99.90;;;;;;5017948;28;20546;-52
2022/06/18 03:13:04;;;;;;;5.65;1.70;;;16.50;99.90;;;;;;5035597;28;20029;-49
2022/06/18 03:15:30;;;;;;;6.65;2.20;;;16.70;99.90;;;;;;5035555;28;20033;-49
2022/06/18 03:17:58;;;;;;;7.72;2.05;;;16.70;99.90;;;;;;5017694;28;20394;-50
2022/06/18 03:20:30;;;;;;;6.22;2.05;;;16.70;99.90;;;;;;5017703;28;20118;-51
2022/06/18 03:22:57;;;;;;;4.97;2.13;;;16.70;99.90;;;;;;5017674;28;20037;-51
2022/06/18 03:25:22;;;;;;;4.15;2.20;;;16.60;99.90;;;;;;5035227;28;20021;-53
2022/06/18 03:27:48;;;;;;;3.75;1.77;;;16.60;99.90;;;;;;5017414;28;20025;-54
2022/06/18 03:30:14;;;;;;;5.43;2.15;;;16.70;99.90;;;;;;5017496;28;20116;-54
2022/06/18 03:32:39;;;;;;;7.65;2.42;;;16.70;99.90;;;;;;5017436;28;20018;-50
2022/06/18 03:35:06;;;;;;;6.68;2.70;;;16.60;99.90;;;;;;5035366;28;20029;-51
2022/06/18 03:37:32;;;;;;;7.50;2.08;;;16.60;99.90;;;;;;5017773;28;20025;-51
2022/06/18 03:39:57;;;;;;;4.65;2.28;;;16.60;99.90;;;;;;5035126;28;20493;-52
2022/06/18 03:42:23;;;;;;;8.55;2.08;;;16.70;99.90;;;;;;5018181;28;20053;-50
2022/06/18 03:44:49;;;;;;;6.22;2.03;;;16.70;99.90;;;;;;5017942;28;20025;-52
2022/06/18 03:47:14;;;;;;;5.00;2.40;;;16.80;99.90;;;;;;5034926;28;20022;-51
2022/06/18 03:49:40;;;;;;;13.57;2.47;;;16.80;99.90;;;;;;5035248;28;20033;-54
2022/06/18 03:52:07;;;;;;;6.32;2.15;;;16.80;99.90;;;;;;5034825;28;20096;-52
2022/06/18 03:54:34;;;;;;;12.02;2.78;;;16.90;99.90;;;;;;5034970;28;20025;-53
2022/06/18 03:56:59;;;;;;;5.40;2.00;;;16.90;99.90;;;;;;5017267;28;20022;-55
2022/06/18 03:59:25;;;;;;;5.18;2.20;;;17.00;99.90;;;;;;5034521;28;20032;-55
2022/06/18 04:01:51;;;;;;;13.02;2.00;;;17.10;99.90;;;;;;5034852;28;20030;-50
2022/06/18 04:04:17;;;;;;;4.47;1.92;;;17.30;99.90;;;;;;5016620;28;20398;-50
2022/06/18 04:06:43;;;;;;;7.35;2.42;;;17.20;99.90;;;;;;5017474;28;20021;-48
2022/06/18 04:09:09;;;;;;;2.75;2.20;;;17.30;99.90;;;;;;5016216;28;20033;-48
2022/06/18 04:11:35;;;;;;;3.28;1.90;;;17.40;99.90;;;;;;5034445;28;20028;-49
2022/06/18 04:14:02;;;;;;;3.75;2.40;;;17.50;99.90;;;;;;5034383;28;20025;-51
2022/06/18 04:16:28;;;;;;;5.05;2.08;;;17.60;99.90;;;;;;5016597;28;20025;-48
2022/06/18 04:18:53;;;;;;;2.65;2.45;;;17.70;99.90;;;;;;5016549;28;20103;-49
2022/06/18 04:21:19;;;;;;;4.35;1.80;;;17.90;99.90;;;;;;5016347;28;20033;-49
2022/06/18 04:23:45;;;;;;;8.88;1.98;;;18.10;99.90;;;;;;5016410;28;20025;-51
2022/06/18 04:26:12;;;;;;;8.27;2.00;;;18.40;99.90;;;;;;5016723;28;20036;-48
2022/06/18 04:28:38;;;;;;;6.72;2.13;;;18.70;99.90;;;;;;5016523;28;20526;-50
2022/06/18 04:31:04;;;;;;;6.78;2.10;;;19.00;99.90;;;;;;5016723;28;20068;-48
2022/06/18 04:33:31;;;;;;;6.93;2.38;;;19.40;99.90;;;;;;5016658;28;20444;-50
2022/06/18 04:35:57;;;;;;;3.70;2.50;;;19.70;99.90;;;;;;5034196;28;20025;-48
2022/06/18 04:38:24;;;;;;;4.50;2.53;;;19.90;99.90;;;;;;5016595;28;20522;-48
2022/06/18 04:40:50;;;;;;;8.95;3.00;;;20.10;99.90;;;;;;5033970;28;20021;-51
2022/06/18 04:43:16;;;;;;;5.28;2.72;;;20.40;99.90;;;;;;5016446;28;20029;-48
2022/06/18 04:45:42;;;;;;;5.03;2.22;;;20.70;99.90;;;;;;5017041;28;20103;-49
2022/06/18 04:48:08;;;;;;;4.63;2.03;;;20.90;99.90;;;;;;5016278;28;20018;-50
2022/06/18 04:50:36;;;;;;;6.20;2.17;;;21.10;99.90;;;;;;5034021;28;20019;-52
2022/06/18 04:53:03;;;;;;;6.43;2.35;;;21.40;99.90;;;;;;5034082;28;20475;-53
2022/06/18 04:55:29;;;;;;;7.68;2.13;;;21.60;99.90;;;;;;5033965;28;20152;-48
2022/06/18 04:57:55;;;;;;;7.72;2.33;;;21.80;99.90;;;;;;5033846;28;20104;-48
2022/06/18 05:00:21;;;;;;;4.05;2.35;;;22.00;99.90;;;;;;5016188;28;20037;-48
2022/06/18 05:02:47;;;;;;;6.40;1.90;;;22.30;99.90;;;;;;5033959;28;20028;-51
2022/06/18 05:05:16;;;;;;;6.38;1.85;;;22.50;99.90;;;;;;5016513;28;20033;-51
2022/06/18 05:07:42;;;;;;;5.43;1.83;;;22.80;99.90;;;;;;5034036;28;20018;-50
2022/06/18 05:10:08;;;;;;;4.88;1.88;;;23.00;99.90;;;;;;5015970;28;20116;-53
2022/06/18 05:12:34;;;;;;;4.05;1.80;;;23.30;99.90;;;;;;5033669;28;20055;-49
2022/06/18 05:14:59;;;;;;;5.00;2.60;;;23.60;99.90;;;;;;5016338;28;20022;-49
2022/06/18 05:17:28;;;;;;;11.15;2.10;;;23.90;99.90;;;;;;5015900;28;20032;-49
2022/06/18 05:19:54;;;;;;;2.17;1.90;;;24.10;99.90;;;;;;5016368;28;20068;-53
2022/06/18 05:22:20;;;;;;;4.53;2.13;;;24.50;99.90;;;;;;5015210;28;20069;-52
2022/06/18 05:24:46;;;;;;;4.55;2.38;;;24.80;99.90;;;;;;5016004;28;20026;-50
2022/06/18 05:27:25;;;;;;;10.27;2.95;;;25.10;99.90;;;;;;5015674;28;20026;-56
2022/06/18 05:29:50;;;;;;;3.67;1.80;;;25.40;99.90;;;;;;5033436;28;20109;-54
2022/06/18 05:32:16;;;;;;;5.63;2.42;;;25.70;99.90;;;;;;5016136;28;20121;-54
2022/06/18 05:34:42;;;;;;;4.50;2.30;;;26.00;99.90;;;;;;5033446;28;20045;-51
2022/06/18 05:37:15;;;;;;;2.90;1.90;;;26.40;99.90;;;;;;5015926;28;20028;-52
2022/06/18 05:39:41;;;;;;;3.63;1.92;;;26.70;99.90;;;;;;5033181;28;20036;-51
2022/06/18 05:42:07;;;;;;;5.53;2.42;;;27.10;99.90;;;;;;5033242;28;20029;-55
2022/06/18 05:44:33;;;;;;;4.50;2.15;;;27.10;99.90;;;;;;5015425;28;20021;-54
2022/06/18 05:46:59;;;;;;;4.85;2.35;;;27.40;99.90;;;;;;5033458;28;20380;-56
2022/06/18 05:49:24;;;;;;;6.15;2.72;;;27.70;99.90;;;;;;5015977;28;20028;-53
2022/06/18 05:51:50;;;;;;;9.90;2.67;;;28.00;99.90;;;;;;5033699;28;20021;-52
2022/06/18 05:54:15;;;;;;;4.07;1.90;;;28.30;99.90;;;;;;5033499;28;20030;-49
2022/06/18 05:56:41;;;;;;;2.65;2.17;;;28.60;99.50;;;;;;5033439;28;20036;-52
2022/06/18 05:59:10;;;;;;;3.65;2.38;;;29.00;98.60;;;;;;5015414;28;20076;-54
2022/06/18 06:01:36;;;;;;;1.95;1.75;;;29.30;97.50;;;;;;5015705;28;20045;-51
2022/06/18 06:04:02;;;;;;;3.25;2.10;;;29.60;97.00;;;;;;5032882;28;20068;-55
2022/06/18 06:06:28;;;;;;;5.07;2.40;;;29.80;96.20;;;;;;5015305;28;20021;-55
2022/06/18 06:08:54;;;;;;;4.60;2.08;;;29.80;95.20;;;;;;5015603;28;20113;-56
2022/06/18 06:11:32;;;;;;;4.70;2.40;;;29.90;94.50;;;;;;5033146;28;20033;-53
2022/06/18 06:14:00;;;;;;;3.55;2.22;;;30.20;94.20;;;;;;5016244;28;20049;-50
2022/06/18 06:16:27;;;;;;;6.10;2.10;;;30.50;93.40;;;;;;5032891;28;20013;-54
2022/06/18 06:18:53;;;;;;;6.28;2.42;;;30.80;92.40;;;;;;5015977;28;20025;-50
2022/06/18 06:21:19;;;;;;;5.60;1.90;;;30.80;91.40;;;;;;5015335;28;20033;-54
2022/06/18 06:23:45;;;;;;;5.78;2.15;;;30.90;91.20;;;;;;5015120;28;20021;-53
2022/06/18 06:26:21;;;;;;;4.05;2.38;;;31.40;89.90;;;;;;5033274;28;20064;-53
2022/06/18 06:28:47;;;;;;;2.60;2.05;;;31.60;87.10;;;;;;5015906;28;20053;-50
2022/06/18 06:31:13;;;;;;;5.63;2.15;;;32.10;86.20;;;;;;5032714;28;20029;-52
2022/06/18 06:33:39;;;;;;;4.05;2.15;;;32.60;83.20;;;;;;5035331;28;20384;-51
2022/06/18 06:36:06;;;;;;;4.18;2.20;;;33.00;82.50;;;;;;5018887;28;20029;-48
2022/06/18 06:38:32;;;;;;;2.58;1.98;;;33.40;79.80;;;;;;5018654;28;20037;-54
2022/06/18 06:40:59;;;;;;;3.65;1.90;;;33.70;78.60;;;;;;5018543;28;20057;-54
2022/06/18 06:43:24;;;;;;;5.28;2.13;;;33.20;78.60;;;;;;5019404;28;20049;-50
2022/06/18 06:45:50;;;;;;;3.28;2.10;;;33.30;78.70;;;;;;5018699;28;20053;-51
2022/06/18 06:48:16;;;;;;;3.42;2.08;;;33.20;76.80;;;;;;5036197;28;20033;-54
2022/06/18 06:50:42;;;;;;;2.90;2.05;;;32.60;80.00;;;;;;5019507;28;20025;-53
2022/06/18 06:53:09;;;;;;;4.45;1.88;;;33.50;78.30;;;;;;5018883;28;20439;-51
2022/06/18 06:58:21;;;;;;;3.33;2.38;;;34.50;76.10;;;;;;5036673;28;20119;-52
2022/06/18 07:00:50;;;;;;;2.92;1.83;;;34.60;73.30;;;;;;5018663;28;20029;-54
2022/06/18 07:03:20;;;;;;;3.20;2.38;;;34.40;74.40;;;;;;5036000;28;20029;-53
2022/06/18 07:05:46;;;;;;;3.83;2.17;;;34.30;73.60;;;;;;5018303;28;20025;-52
2022/06/18 07:08:12;;;;;;;4.60;2.40;;;33.80;73.60;;;;;;5036501;28;20025;-51
2022/06/18 07:10:39;;;;;;;4.20;2.13;;;34.10;75.40;;;;;;5018277;28;20021;-48
2022/06/18 07:13:05;;;;;;;4.47;2.25;;;34.50;72.20;;;;;;5036136;28;20056;-50
2022/06/18 07:15:32;;;;;;;4.53;2.15;;;34.10;73.20;;;;;;5018226;28;20030;-50
2022/06/18 07:17:59;;;;;;;3.33;2.20;;;34.30;72.20;;;;;;5017966;28;20026;-48
2022/06/18 07:20:25;;;;;;;4.15;2.42;;;34.30;73.80;;;;;;5017837;28;20480;-48
2022/06/18 07:22:50;;;;;;;5.00;2.40;;;35.20;72.20;;;;;;5017789;28;20112;-47
2022/06/18 07:25:16;;;;;;;5.75;2.42;;;35.30;70.70;;;;;;5017801;28;20034;-49
2022/06/18 07:27:43;;;;;;;4.13;2.35;;;34.80;70.70;;;;;;5017734;28;20076;-48
2022/06/18 07:30:26;;;;;;;5.25;1.98;;;34.60;72.00;;;;;;5035306;28;20049;-50
2022/06/18 07:32:52;;;;;;;2.00;1.90;;;35.40;70.40;;;;;;5035842;28;20028;-54
2022/06/18 07:35:24;;;;;;;3.42;2.00;;;35.60;71.00;;;;;;5017885;28;20025;-48
2022/06/18 07:37:50;;;;;;;5.70;2.20;;;35.80;68.60;;;;;;5017571;28;20021;-49
2022/06/18 07:40:17;;;;;;;6.15;1.85;;;35.40;69.00;;;;;;5017733;28;20029;-48
2022/06/18 07:42:45;;;;;;;5.15;2.10;;;35.20;70.50;;;;;;5017542;28;20080;-55
2022/06/18 07:45:20;;;;;;;3.40;2.08;;;35.70;70.00;;;;;;5016598;28;20032;-49
2022/06/18 07:47:46;;;;;;;4.45;2.42;;;37.00;67.90;;;;;;5017519;28;20025;-54
2022/06/18 07:50:12;;;;;;;4.97;2.20;;;37.40;68.10;;;;;;5017540;28;20032;-53
2022/06/18 07:52:38;;;;;;;3.20;2.13;;;37.10;66.70;;;;;;5017285;28;20025;-51
2022/06/18 07:55:05;;;;;;;3.55;1.73;;;37.00;65.50;;;;;;5018450;28;20021;-51
2022/06/18 07:57:31;;;;;;;3.38;2.08;;;37.50;66.00;;;;;;5034881;28;20159;-54
2022/06/18 07:59:57;;;;;;;2.10;1.90;;;38.40;63.50;;;;;;5017114;28;20052;-53
2022/06/18 08:02:23;;;;;;;4.78;2.00;;;38.10;64.20;;;;;;5017152;28;20021;-48
2022/06/18 08:04:49;;;;;;;5.25;2.83;;;38.70;63.60;;;;;;5034700;28;20081;-51
2022/06/18 08:07:15;;;;;;;3.60;1.90;;;38.70;63.60;;;;;;5017003;28;20121;-55
2022/06/18 08:09:40;;;;;;;5.95;2.72;;;38.70;62.80;;;;;;5034743;28;20021;-53
2022/06/18 08:12:07;;;;;;;9.30;2.78;;;38.20;62.10;;;;;;5017727;28;20051;-52
2022/06/18 08:14:32;;;;;;;4.55;2.00;;;38.40;63.00;;;;;;5016894;28;20029;-51
2022/06/18 08:16:58;;;;;;;4.95;2.60;;;39.20;62.70;;;;;;5016909;28;20480;-55
2022/06/18 08:19:24;;;;;;;4.93;2.20;;;40.10;61.90;;;;;;5016782;28;20033;-52
2022/06/18 08:21:50;;;;;;;5.47;2.45;;;40.30;60.90;;;;;;5017002;28;20400;-50
2022/06/18 08:24:22;;;;;;;3.70;2.67;;;40.40;60.10;;;;;;5017230;28;20491;-55
2022/06/18 08:26:49;;;;;;;4.50;2.53;;;39.60;60.70;;;;;;5034488;28;20443;-51
2022/06/18 08:29:19;;;;;;;3.10;2.10;;;38.70;62.10;;;;;;5016906;28;20053;-54
2022/06/18 08:31:45;;;;;;;4.25;2.55;;;39.00;61.20;;;;;;5034650;28;20101;-51
2022/06/18 08:34:10;;;;;;;2.58;2.15;;;39.50;60.60;;;;;;5016743;28;20030;-49
2022/06/18 08:36:38;;;;;;;5.40;2.83;;;38.90;58.90;;;;;;5016580;28;20043;-52
2022/06/18 08:39:04;;;;;;;3.03;2.08;;;38.70;61.10;;;;;;5034172;28;20029;-52
2022/06/18 08:41:55;;;;;;;7.03;2.40;;;39.90;59.50;;;;;;5016361;28;20029;-51
2022/06/18 08:44:43;;;;;;;6.38;2.60;;;41.40;58.20;;;;;;5016444;28;20079;-53
2022/06/18 08:47:21;;;;;;;3.70;2.50;;;40.80;57.80;;;;;;5034063;28;20026;-52
2022/06/18 08:50:28;;;;;;;3.53;2.35;;;41.90;57.00;;;;;;5016324;28;20503;-55
2022/06/18 08:53:02;;;;;;;2.65;2.45;;;41.90;56.20;;;;;;5003594;28;20116;-51
2022/06/18 08:55:49;;;;;;;7.72;2.58;;;41.50;56.20;;;;;;5016883;28;20029;-52
2022/06/18 08:58:44;;;;;;;12.55;3.10;;;41.40;56.70;;;;;;5033837;28;20545;-53
2022/06/18 09:01:32;;;;;;;3.28;2.75;;;40.90;56.60;;;;;;5016128;28;20033;-52
2022/06/18 09:04:03;;;;;;;5.45;2.30;;;39.60;57.60;;;;;;5016607;28;20032;-55
2022/06/18 09:07:06;;;;;;;6.18;2.58;;;38.50;60.10;;;;;;5016054;28;20427;-48
2022/06/18 09:10:05;;;;;;;6.18;2.22;;;37.70;61.80;;;;;;5015979;28;20053;-54
2022/06/18 09:12:42;;;;;;;2.88;1.85;;;37.70;61.80;;;;;;5016031;28;20032;-48
2022/06/18 09:15:11;;;;;;;7.60;2.30;;;38.30;60.80;;;;;;5016002;28;20488;-51
2022/06/18 09:17:42;;;;;;;3.72;2.42;;;39.20;60.60;;;;;;5015838;28;20029;-55
2022/06/18 09:20:22;;;;;;;4.03;2.30;;;40.00;58.70;;;;;;5015846;28;20029;-50
2022/06/18 09:22:50;;;;;;;;;;;41.00;57.30;;;;;;5035286;28;20034;-48
2022/06/18 09:25:18;;;;;;;4.30;2.10;;;40.60;58.80;;;;;;5032404;28;19916;-51
2022/06/18 09:28:06;;;;;;;4.05;2.22;;;40.60;57.30;;;;;;5016559;28;20022;-53
2022/06/18 09:30:40;;;;;;;3.65;2.25;;;40.90;57.80;;;;;;5015720;28;20032;-50
2022/06/18 09:33:24;;;;;;;5.63;2.10;;;41.40;57.20;;;;;;5033382;28;20075;-53
2022/06/18 09:36:06;;;;;;;7.78;2.80;;;40.60;56.90;;;;;;5033746;28;20028;-54
2022/06/18 09:39:18;;;;;;;4.88;1.83;;;40.40;57.20;;;;;;5016494;28;20033;-51
2022/06/18 09:42:25;;;;;;;3.05;2.00;;;40.30;57.70;;;;;;5016186;28;20057;-51
2022/06/18 09:45:01;;;;;;;8.60;2.10;;;40.00;57.40;;;;;;5016388;28;20053;-52
2022/06/18 09:47:36;;;;;;;3.97;1.80;;;40.90;56.80;;;;;;5015636;28;20032;-54
2022/06/18 09:50:02;;;;;;;5.10;2.15;;;41.40;56.60;;;;;;5016303;28;20022;-53
2022/06/18 09:52:34;;;;;;;4.35;1.77;;;40.40;56.60;;;;;;5015858;28;20025;-55
2022/06/18 09:55:09;;;;;;;2.90;2.10;;;40.90;56.80;;;;;;5033116;28;20026;-54
2022/06/18 09:57:38;;;;;;;4.03;2.20;;;40.70;55.40;;;;;;5033305;28;20030;-51
2022/06/18 10:00:16;;;;;;;6.10;2.50;;;40.90;55.50;;;;;;5016240;28;20127;-49
2022/06/18 10:02:51;;;;;;;7.47;2.53;;;40.40;55.80;;;;;;5015698;28;20033;-51
2022/06/18 10:08:14;;;;;;;8.77;2.58;;;40.20;56.30;;;;;;5035551;28;20028;-53
2022/06/18 10:10:51;;;;;;;5.40;2.03;;;39.70;56.70;;;;;;5019275;28;20021;-52
2022/06/18 10:13:23;;;;;;;6.05;2.13;;;38.70;58.50;;;;;;5020329;28;20025;-53
2022/06/18 10:15:49;;;;;;;3.38;1.75;;;39.80;58.60;;;;;;5019967;28;20029;-54
2022/06/18 10:18:20;;;;;;;4.10;2.22;;;39.10;57.00;;;;;;5036727;28;20052;-55
2022/06/18 10:21:12;;;;;;;7.80;2.30;;;39.00;57.10;;;;;;5037110;28;20026;-55
2022/06/18 10:23:49;;;;;;;2.95;2.20;;;38.70;57.20;;;;;;5013483;28;20045;-55
2022/06/18 10:26:15;;;;;;;6.68;2.58;;;38.70;57.30;;;;;;5036696;28;20026;-51
2022/06/18 10:29:12;;;;;;;6.15;2.28;;;38.20;58.30;;;;;;5036586;28;20502;-55
2022/06/18 10:31:57;;;;;;;8.32;2.00;;;38.10;59.10;;;;;;4986743;28;20033;-54
2022/06/18 10:34:41;;;;;;;2.33;2.08;;;38.10;58.80;;;;;;5019142;28;20056;-52
2022/06/18 10:37:23;;;;;;;5.10;1.95;;;37.50;58.50;;;;;;5036952;28;20029;-51
2022/06/18 10:40:31;;;;;;;5.57;1.90;;;37.40;59.10;;;;;;5036441;28;20026;-54
2022/06/18 10:43:09;;;;;;;4.20;1.90;;;37.90;58.70;;;;;;5019689;28;20035;-55
2022/06/18 10:45:44;;;;;;;3.95;2.13;;;38.30;58.30;;;;;;5036596;28;20044;-48
2022/06/18 10:48:13;;;;;;;4.68;2.05;;;38.10;59.50;;;;;;5019615;28;20033;-49
2022/06/18 10:50:45;;;;;;;3.53;2.17;;;37.40;59.10;;;;;;5018560;28;20032;-50
2022/06/18 10:53:15;;;;;;;5.35;2.05;;;37.20;59.70;;;;;;5018917;28;20029;-51
2022/06/18 10:55:41;;;;;;;4.50;2.40;;;37.30;59.50;;;;;;5018558;28;20163;-52
2022/06/18 10:58:10;;;;;;;3.70;1.88;;;36.90;59.70;;;;;;5018335;28;20112;-50
2022/06/18 11:00:36;;;;;;;8.15;2.28;;;36.70;60.40;;;;;;5036181;28;20026;-52
2022/06/18 11:03:04;;;;;;;2.92;2.28;;;36.70;60.20;;;;;;5036558;28;20104;-53
2022/06/18 11:05:31;;;;;;;5.68;2.15;;;36.40;60.70;;;;;;5018244;28;20025;-51
2022/06/18 11:08:00;;;;;;;3.03;2.03;;;35.60;61.20;;;;;;5035984;28;20022;-55
2022/06/18 11:10:49;;;;;;;6.07;2.22;;;35.30;62.40;;;;;;5035970;28;20028;-55
2022/06/18 11:13:33;;;;;;;9.43;2.38;;;34.90;62.90;;;;;;5018351;28;20033;-50
2022/06/18 11:16:05;;;;;;;4.28;2.60;;;34.60;65.10;;;;;;5019019;28;20029;-54
2022/06/18 11:18:30;;;;;;;6.30;2.13;;;34.60;64.50;;;;;;5018541;28;20380;-51
2022/06/18 11:21:05;;;;;;;4.30;2.40;;;34.60;64.00;;;;;;5017252;28;20033;-51
2022/06/18 11:23:36;;;;;;;4.75;2.50;;;34.80;63.60;;;;;;5035985;28;20083;-51
2022/06/18 11:26:05;;;;;;;9.60;2.50;;;34.60;64.60;;;;;;5018384;28;20022;-53
2022/06/18 11:28:42;;;;;;;2.72;2.20;;;34.40;65.20;;;;;;5036081;28;20056;-51
2022/06/18 11:31:13;;;;;;;3.70;2.28;;;34.00;65.10;;;;;;5017928;28;20026;-52
2022/06/18 11:33:54;;;;;;;4.13;2.05;;;34.00;65.40;;;;;;5018070;28;20048;-51
2022/06/18 11:36:44;;;;;;;8.93;2.65;;;34.30;65.50;;;;;;5018144;28;20583;-54
2022/06/18 11:39:34;;;;;;;6.28;2.35;;;34.50;65.30;;;;;;5035713;28;20100;-52
2022/06/18 11:42:19;;;;;;;6.63;2.67;;;34.80;65.10;;;;;;5019088;28;20116;-54
2022/06/18 11:45:09;;;;;;;11.15;2.80;;;35.00;66.00;;;;;;5018706;28;20107;-51
2022/06/18 11:47:45;;;;;;;6.00;2.40;;;35.10;65.00;;;;;;5017938;28;20499;-53
2022/06/18 11:50:26;;;;;;;5.90;2.45;;;35.20;65.50;;;;;;5018474;28;20053;-53
2022/06/18 11:52:58;;;;;;;8.25;3.10;;;35.30;64.00;;;;;;5017480;28;20057;-51
2022/06/18 11:55:24;;;;;;;4.40;2.33;;;35.10;64.00;;;;;;5035212;28;20025;-49
2022/06/18 11:57:56;;;;;;;8.75;2.67;;;35.00;64.60;;;;;;5017848;28;20029;-50
2022/06/18 12:00:33;;;;;;;4.70;2.38;;;35.00;64.50;;;;;;5017948;28;20022;-53
2022/06/18 12:03:06;;;;;;;2.97;2.10;;;35.00;64.60;;;;;;5035369;28;20029;-51
2022/06/18 12:05:47;;;;;;;4.65;2.28;;;35.10;64.30;;;;;;5035134;28;20060;-52
2022/06/18 12:08:16;;;;;;;;;;;35.10;64.40;;;;;;5017655;28;20025;-53
2022/06/18 12:10:50;;;;;;;7.35;3.00;;;35.10;63.40;;;;;;5017583;28;19933;-55
2022/06/18 12:13:38;;;;;;;3.58;2.40;;;35.10;64.50;;;;;;5017639;28;20025;-51
2022/06/18 12:16:10;;;;;;;4.10;2.78;;;35.10;65.10;;;;;;5017063;28;20022;-51
2022/06/18 12:18:44;;;;;;;7.28;2.00;;;35.00;63.30;;;;;;5034884;28;20029;-49
2022/06/18 12:21:16;;;;;;;6.70;2.38;;;34.90;64.90;;;;;;5035018;28;20108;-54
2022/06/18 12:23:54;;;;;;;9.25;2.25;;;34.80;64.00;;;;;;5016894;28;20148;-53
2022/06/18 12:26:43;;;;;;;5.25;2.70;;;34.70;65.00;;;;;;5034752;28;20064;-53
2022/06/18 12:29:14;;;;;;;11.68;2.65;;;34.70;64.20;;;;;;5016833;28;20377;-52
2022/06/18 12:31:53;;;;;;;7.07;2.67;;;34.60;64.50;;;;;;5016642;28;20021;-48
2022/06/18 12:34:22;;;;;;;5.40;2.75;;;34.40;65.00;;;;;;5034386;28;20052;-50
2022/06/18 12:37:06;;;;;;;6.13;2.58;;;34.40;66.40;;;;;;5016768;28;20088;-51
2022/06/18 12:39:52;;;;;;;4.45;2.42;;;34.40;65.80;;;;;;5034240;28;20027;-52
2022/06/18 12:42:25;;;;;;;9.02;3.42;;;34.50;66.50;;;;;;5034468;28;20419;-52
2022/06/18 12:45:07;;;;;;;5.75;2.33;;;34.40;64.50;;;;;;5034693;28;20060;-49
2022/06/18 12:47:46;;;;;;;8.40;3.05;;;34.30;65.00;;;;;;5016424;28;20052;-52
2022/06/18 12:50:43;;;;;;;4.05;2.70;;;34.20;65.20;;;;;;5016196;28;20613;-51
2022/06/18 12:53:39;;;;;;;7.95;2.97;;;34.30;67.50;;;;;;5034086;28;20460;-48
2022/06/18 12:56:17;;;;;;;6.18;3.28;;;34.40;66.40;;;;;;5017082;28;20029;-49
2022/06/18 12:58:52;;;;;;;6.68;2.80;;;34.50;65.70;;;;;;5016727;28;20069;-49
2022/06/18 13:01:33;;;;;;;4.90;2.72;;;34.50;64.80;;;;;;5016210;28;20022;-53
2022/06/18 13:04:13;;;;;;;;;;;34.30;64.90;;;;;;5034232;28;20100;-51
2022/06/18 13:07:01;;;;;;;;;;;34.20;65.60;;;;;;5016450;28;19924;-52
2022/06/18 13:09:55;;;;;;;10.60;3.22;;;34.00;65.60;;;;;;5032548;28;19905;-50
2022/06/18 13:13:00;;;;;;;9.65;3.00;;;33.70;65.00;;;;;;5015946;28;20022;-50
2022/06/18 13:15:42;;;;;;;6.30;2.83;;;33.60;65.90;;;;;;5015638;28;20124;-52
2022/06/18 13:18:28;;;;;;;8.05;3.15;;;33.60;66.20;;;;;;5015964;28;20052;-55
2022/06/18 13:20:57;;;;;;;6.47;2.80;;;33.50;64.90;;;;;;5015613;28;20038;-55
2022/06/18 13:29:16;;;;;;;9.20;3.10;;;33.80;66.10;;;;;;5033861;28;20036;-52